Terminal Aerodrome Forecast
Issued by NWS Northern Indiana

Home | Current Version | Previous Version | Graphics & Text | Print | Product List | Glossary On
Versions: 1 2 3 4 5 6 7 8 9 10 11 12 13 14 15 16 17 18
000
FTUS43 KIWX 261300 AAA
TAFFWA
TAF AMD
KFWA 261303Z 2613/2712 34004KT 3SM -RASN BR OVC009
     FM261500 32008KT P6SM OVC020
     FM261800 30012G18KT P6SM BKN035
     FM270000 32008KT P6SM SCT030 BKN150=

USA.gov is the U.S. government's official web portal to all federal, state and local government web resources and services.